sensor_id;sensor_type;location;lat;lon;timestamp;P1;durP1;ratioP1;P2;durP2;ratioP2
23270;SDS011;11804;51.118;17.058;2024-02-14T00:01:12;21.53;;;11.10;;
23270;SDS011;11804;51.118;17.058;2024-02-14T00:03:40;20.53;;;9.27;;
23270;SDS011;11804;51.118;17.058;2024-02-14T00:06:07;23.03;;;11.03;;
23270;SDS011;11804;51.118;17.058;2024-02-14T00:08:35;17.53;;;8.80;;
23270;SDS011;11804;51.118;17.058;2024-02-14T00:11:04;23.73;;;10.77;;
23270;SDS011;11804;51.118;17.058;2024-02-14T00:13:32;20.03;;;10.27;;
23270;SDS011;11804;51.118;17.058;2024-02-14T00:16:03;25.23;;;9.67;;
23270;SDS011;11804;51.118;17.058;2024-02-14T00:18:32;27.10;;;9.60;;
23270;SDS011;11804;51.118;17.058;2024-02-14T00:21:01;33.43;;;10.73;;
23270;SDS011;11804;51.118;17.058;2024-02-14T00:23:29;24.40;;;8.43;;
23270;SDS011;11804;51.118;17.058;2024-02-14T00:25:56;24.63;;;10.30;;
23270;SDS011;11804;51.118;17.058;2024-02-14T00:28:24;23.53;;;9.77;;
23270;SDS011;11804;51.118;17.058;2024-02-14T00:30:52;23.83;;;10.27;;
23270;SDS011;11804;51.118;17.058;2024-02-14T00:33:20;17.10;;;9.37;;
23270;SDS011;11804;51.118;17.058;2024-02-14T00:35:48;21.23;;;9.90;;
23270;SDS011;11804;51.118;17.058;2024-02-14T00:38:15;20.13;;;10.00;;
23270;SDS011;11804;51.118;17.058;2024-02-14T00:40:43;21.80;;;10.30;;
23270;SDS011;11804;51.118;17.058;2024-02-14T00:43:11;23.90;;;9.70;;
23270;SDS011;11804;51.118;17.058;2024-02-14T00:45:39;25.47;;;11.00;;
23270;SDS011;11804;51.118;17.058;2024-02-14T00:48:07;23.77;;;11.00;;
23270;SDS011;11804;51.118;17.058;2024-02-14T00:50:34;30.60;;;9.73;;
23270;SDS011;11804;51.118;17.058;2024-02-14T00:53:03;20.30;;;9.97;;
23270;SDS011;11804;51.118;17.058;2024-02-14T00:55:31;28.87;;;10.43;;
23270;SDS011;11804;51.118;17.058;2024-02-14T00:57:59;19.17;;;8.47;;
23270;SDS011;11804;51.118;17.058;2024-02-14T01:00:28;26.37;;;9.73;;
23270;SDS011;11804;51.118;17.058;2024-02-14T01:02:57;20.43;;;9.77;;
23270;SDS011;11804;51.118;17.058;2024-02-14T01:05:25;29.20;;;10.33;;
23270;SDS011;11804;51.118;17.058;2024-02-14T01:07:52;27.17;;;10.83;;
23270;SDS011;11804;51.118;17.058;2024-02-14T01:10:20;30.13;;;9.53;;
23270;SDS011;11804;51.118;17.058;2024-02-14T01:12:48;27.00;;;9.67;;
23270;SDS011;11804;51.118;17.058;2024-02-14T01:15:16;17.63;;;8.57;;
23270;SDS011;11804;51.118;17.058;2024-02-14T01:17:43;26.37;;;11.03;;
23270;SDS011;11804;51.118;17.058;2024-02-14T01:20:12;20.60;;;9.10;;
23270;SDS011;11804;51.118;17.058;2024-02-14T01:22:41;21.83;;;9.43;;
23270;SDS011;11804;51.118;17.058;2024-02-14T01:25:09;27.43;;;9.33;;
23270;SDS011;11804;51.118;17.058;2024-02-14T01:27:36;24.97;;;10.63;;
23270;SDS011;11804;51.118;17.058;2024-02-14T01:30:04;17.73;;;9.13;;
23270;SDS011;11804;51.118;17.058;2024-02-14T01:32:33;23.07;;;9.50;;
23270;SDS011;11804;51.118;17.058;2024-02-14T01:35:00;25.93;;;9.43;;
23270;SDS011;11804;51.118;17.058;2024-02-14T01:37:29;22.17;;;9.00;;
23270;SDS011;11804;51.118;17.058;2024-02-14T01:39:57;21.27;;;10.60;;
23270;SDS011;11804;51.118;17.058;2024-02-14T01:42:24;27.37;;;11.03;;
23270;SDS011;11804;51.118;17.058;2024-02-14T01:44:53;16.67;;;9.87;;
23270;SDS011;11804;51.118;17.058;2024-02-14T01:47:21;18.57;;;10.07;;
23270;SDS011;11804;51.118;17.058;2024-02-14T01:49:49;20.00;;;10.27;;
23270;SDS011;11804;51.118;17.058;2024-02-14T01:52:16;19.47;;;9.33;;
23270;SDS011;11804;51.118;17.058;2024-02-14T01:54:44;22.67;;;10.53;;
23270;SDS011;11804;51.118;17.058;2024-02-14T01:57:12;27.70;;;10.87;;
23270;SDS011;11804;51.118;17.058;2024-02-14T01:59:41;21.20;;;8.93;;
23270;SDS011;11804;51.118;17.058;2024-02-14T02:02:09;24.40;;;9.97;;
23270;SDS011;11804;51.118;17.058;2024-02-14T02:04:37;27.07;;;9.97;;
23270;SDS011;11804;51.118;17.058;2024-02-14T02:07:05;21.60;;;9.40;;
23270;SDS011;11804;51.118;17.058;2024-02-14T02:09:33;23.53;;;9.67;;
23270;SDS011;11804;51.118;17.058;2024-02-14T02:12:01;29.07;;;10.10;;
23270;SDS011;11804;51.118;17.058;2024-02-14T02:14:30;22.57;;;9.93;;
23270;SDS011;11804;51.118;17.058;2024-02-14T02:16:57;17.80;;;8.90;;
23270;SDS011;11804;51.118;17.058;2024-02-14T02:19:26;21.33;;;8.83;;
23270;SDS011;11804;51.118;17.058;2024-02-14T02:21:54;24.67;;;10.00;;
23270;SDS011;11804;51.118;17.058;2024-02-14T02:24:22;22.50;;;9.27;;
23270;SDS011;11804;51.118;17.058;2024-02-14T02:26:49;21.53;;;10.77;;
23270;SDS011;11804;51.118;17.058;2024-02-14T02:29:17;33.40;;;10.23;;
23270;SDS011;11804;51.118;17.058;2024-02-14T02:31:46;21.47;;;9.10;;
23270;SDS011;11804;51.118;17.058;2024-02-14T02:34:14;19.83;;;9.77;;
23270;SDS011;11804;51.118;17.058;2024-02-14T02:36:42;20.57;;;7.70;;
23270;SDS011;11804;51.118;17.058;2024-02-14T02:39:12;19.00;;;8.87;;
23270;SDS011;11804;51.118;17.058;2024-02-14T02:41:40;18.67;;;8.33;;
23270;SDS011;11804;51.118;17.058;2024-02-14T02:44:08;12.97;;;7.03;;
23270;SDS011;11804;51.118;17.058;2024-02-14T02:46:35;18.70;;;9.13;;
23270;SDS011;11804;51.118;17.058;2024-02-14T02:49:03;18.77;;;8.33;;
23270;SDS011;11804;51.118;17.058;2024-02-14T02:51:30;22.00;;;9.63;;
23270;SDS011;11804;51.118;17.058;2024-02-14T02:53:58;18.13;;;9.43;;
23270;SDS011;11804;51.118;17.058;2024-02-14T02:56:27;22.57;;;9.93;;
23270;SDS011;11804;51.118;17.058;2024-02-14T02:58:55;20.73;;;9.73;;
23270;SDS011;11804;51.118;17.058;2024-02-14T03:01:23;25.00;;;10.33;;
23270;SDS011;11804;51.118;17.058;2024-02-14T03:03:52;15.07;;;8.37;;
23270;SDS011;11804;51.118;17.058;2024-02-14T03:06:19;18.63;;;7.93;;
23270;SDS011;11804;51.118;17.058;2024-02-14T03:08:49;17.47;;;8.30;;
23270;SDS011;11804;51.118;17.058;2024-02-14T03:11:18;17.70;;;9.20;;
23270;SDS011;11804;51.118;17.058;2024-02-14T03:13:45;22.57;;;9.20;;
23270;SDS011;11804;51.118;17.058;2024-02-14T03:16:15;21.53;;;11.27;;
23270;SDS011;11804;51.118;17.058;2024-02-14T03:18:43;19.20;;;9.77;;
23270;SDS011;11804;51.118;17.058;2024-02-14T03:21:11;17.67;;;8.67;;
23270;SDS011;11804;51.118;17.058;2024-02-14T03:23:39;21.90;;;9.33;;
23270;SDS011;11804;51.118;17.058;2024-02-14T03:26:09;18.80;;;8.97;;
23270;SDS011;11804;51.118;17.058;2024-02-14T03:28:36;22.83;;;9.63;;
23270;SDS011;11804;51.118;17.058;2024-02-14T03:31:05;19.07;;;9.93;;
23270;SDS011;11804;51.118;17.058;2024-02-14T03:33:32;15.30;;;7.60;;
23270;SDS011;11804;51.118;17.058;2024-02-14T03:36:00;17.80;;;8.57;;
23270;SDS011;11804;51.118;17.058;2024-02-14T03:38:28;30.50;;;10.13;;
23270;SDS011;11804;51.118;17.058;2024-02-14T03:40:57;21.27;;;9.57;;
23270;SDS011;11804;51.118;17.058;2024-02-14T03:43:25;18.73;;;8.90;;
23270;SDS011;11804;51.118;17.058;2024-02-14T03:45:53;24.63;;;9.67;;
23270;SDS011;11804;51.118;17.058;2024-02-14T03:48:22;20.47;;;9.03;;
23270;SDS011;11804;51.118;17.058;2024-02-14T03:50:49;18.77;;;9.63;;
23270;SDS011;11804;51.118;17.058;2024-02-14T03:53:17;16.37;;;8.47;;
23270;SDS011;11804;51.118;17.058;2024-02-14T03:55:45;22.03;;;8.73;;
23270;SDS011;11804;51.118;17.058;2024-02-14T03:58:14;13.27;;;7.60;;
23270;SDS011;11804;51.118;17.058;2024-02-14T04:00:44;14.90;;;7.67;;
23270;SDS011;11804;51.118;17.058;2024-02-14T04:03:13;20.57;;;8.30;;
23270;SDS011;11804;51.118;17.058;2024-02-14T04:05:40;18.03;;;7.87;;
23270;SDS011;11804;51.118;17.058;2024-02-14T04:08:08;15.40;;;7.37;;
23270;SDS011;11804;51.118;17.058;2024-02-14T04:10:36;12.60;;;6.33;;
23270;SDS011;11804;51.118;17.058;2024-02-14T04:13:04;17.27;;;7.20;;
23270;SDS011;11804;51.118;17.058;2024-02-14T04:15:32;21.47;;;8.23;;
23270;SDS011;11804;51.118;17.058;2024-02-14T04:18:00;19.70;;;9.30;;
23270;SDS011;11804;51.118;17.058;2024-02-14T04:20:29;15.47;;;7.33;;
23270;SDS011;11804;51.118;17.058;2024-02-14T04:22:56;16.63;;;8.73;;
23270;SDS011;11804;51.118;17.058;2024-02-14T04:25:24;16.13;;;7.97;;
23270;SDS011;11804;51.118;17.058;2024-02-14T04:27:52;18.10;;;8.60;;
23270;SDS011;11804;51.118;17.058;2024-02-14T04:30:19;18.77;;;8.13;;
23270;SDS011;11804;51.118;17.058;2024-02-14T04:32:47;11.00;;;6.63;;
23270;SDS011;11804;51.118;17.058;2024-02-14T04:35:15;17.37;;;6.90;;
23270;SDS011;11804;51.118;17.058;2024-02-14T04:37:42;20.20;;;9.43;;
23270;SDS011;11804;51.118;17.058;2024-02-14T04:40:12;17.80;;;7.70;;
23270;SDS011;11804;51.118;17.058;2024-02-14T04:42:40;22.17;;;8.90;;
23270;SDS011;11804;51.118;17.058;2024-02-14T04:45:08;15.03;;;7.83;;
23270;SDS011;11804;51.118;17.058;2024-02-14T04:47:36;13.33;;;6.90;;
23270;SDS011;11804;51.118;17.058;2024-02-14T04:50:04;22.90;;;8.13;;
23270;SDS011;11804;51.118;17.058;2024-02-14T04:52:32;21.30;;;9.50;;
23270;SDS011;11804;51.118;17.058;2024-02-14T04:55:00;16.20;;;7.13;;
23270;SDS011;11804;51.118;17.058;2024-02-14T04:57:27;23.40;;;8.13;;
23270;SDS011;11804;51.118;17.058;2024-02-14T04:59:57;16.63;;;8.90;;
23270;SDS011;11804;51.118;17.058;2024-02-14T05:02:24;20.60;;;8.57;;
23270;SDS011;11804;51.118;17.058;2024-02-14T05:04:52;20.93;;;7.60;;
23270;SDS011;11804;51.118;17.058;2024-02-14T05:07:21;15.50;;;8.40;;
23270;SDS011;11804;51.118;17.058;2024-02-14T05:09:48;17.97;;;9.13;;
23270;SDS011;11804;51.118;17.058;2024-02-14T05:12:17;17.30;;;8.30;;
23270;SDS011;11804;51.118;17.058;2024-02-14T05:14:46;15.33;;;7.80;;
23270;SDS011;11804;51.118;17.058;2024-02-14T05:17:16;15.43;;;6.87;;
23270;SDS011;11804;51.118;17.058;2024-02-14T05:19:43;18.87;;;7.97;;
23270;SDS011;11804;51.118;17.058;2024-02-14T05:22:11;13.23;;;6.50;;
23270;SDS011;11804;51.118;17.058;2024-02-14T05:24:39;11.67;;;6.13;;
23270;SDS011;11804;51.118;17.058;2024-02-14T05:27:07;17.13;;;6.83;;
23270;SDS011;11804;51.118;17.058;2024-02-14T05:29:34;20.07;;;8.37;;
23270;SDS011;11804;51.118;17.058;2024-02-14T05:32:02;11.23;;;6.97;;
23270;SDS011;11804;51.118;17.058;2024-02-14T05:34:30;19.07;;;7.50;;
23270;SDS011;11804;51.118;17.058;2024-02-14T05:36:57;14.53;;;6.30;;
23270;SDS011;11804;51.118;17.058;2024-02-14T05:39:25;12.30;;;5.93;;
23270;SDS011;11804;51.118;17.058;2024-02-14T05:41:53;19.53;;;8.10;;
23270;SDS011;11804;51.118;17.058;2024-02-14T05:44:20;14.30;;;6.53;;
23270;SDS011;11804;51.118;17.058;2024-02-14T05:46:48;16.43;;;7.60;;
23270;SDS011;11804;51.118;17.058;2024-02-14T05:49:16;13.07;;;6.50;;
23270;SDS011;11804;51.118;17.058;2024-02-14T05:51:43;14.47;;;6.30;;
23270;SDS011;11804;51.118;17.058;2024-02-14T05:54:11;12.30;;;5.30;;
23270;SDS011;11804;51.118;17.058;2024-02-14T05:56:39;16.87;;;8.17;;
23270;SDS011;11804;51.118;17.058;2024-02-14T05:59:06;21.10;;;7.87;;
23270;SDS011;11804;51.118;17.058;2024-02-14T06:01:34;16.97;;;6.37;;
23270;SDS011;11804;51.118;17.058;2024-02-14T06:04:02;16.97;;;7.60;;
23270;SDS011;11804;51.118;17.058;2024-02-14T06:06:30;14.07;;;6.97;;
23270;SDS011;11804;51.118;17.058;2024-02-14T06:08:57;14.53;;;6.73;;
23270;SDS011;11804;51.118;17.058;2024-02-14T06:11:25;10.87;;;5.90;;
23270;SDS011;11804;51.118;17.058;2024-02-14T06:13:52;17.47;;;7.23;;
23270;SDS011;11804;51.118;17.058;2024-02-14T06:16:20;10.73;;;6.60;;
23270;SDS011;11804;51.118;17.058;2024-02-14T06:18:48;18.17;;;7.90;;
23270;SDS011;11804;51.118;17.058;2024-02-14T06:21:15;15.50;;;5.40;;
23270;SDS011;11804;51.118;17.058;2024-02-14T06:23:45;11.97;;;6.90;;
23270;SDS011;11804;51.118;17.058;2024-02-14T06:26:12;10.80;;;6.43;;
23270;SDS011;11804;51.118;17.058;2024-02-14T06:28:40;16.93;;;8.30;;
23270;SDS011;11804;51.118;17.058;2024-02-14T06:31:07;14.43;;;6.97;;
23270;SDS011;11804;51.118;17.058;2024-02-14T06:33:35;18.87;;;8.53;;
23270;SDS011;11804;51.118;17.058;2024-02-14T06:36:05;16.73;;;7.73;;
23270;SDS011;11804;51.118;17.058;2024-02-14T06:38:32;13.93;;;7.47;;
23270;SDS011;11804;51.118;17.058;2024-02-14T06:41:00;13.30;;;6.60;;
23270;SDS011;11804;51.118;17.058;2024-02-14T06:43:29;16.90;;;7.60;;
23270;SDS011;11804;51.118;17.058;2024-02-14T06:45:56;20.63;;;7.67;;
23270;SDS011;11804;51.118;17.058;2024-02-14T06:48:25;22.20;;;8.00;;
23270;SDS011;11804;51.118;17.058;2024-02-14T06:50:53;25.97;;;6.77;;
23270;SDS011;11804;51.118;17.058;2024-02-14T06:53:22;14.83;;;6.90;;
23270;SDS011;11804;51.118;17.058;2024-02-14T06:55:49;12.47;;;5.93;;
23270;SDS011;11804;51.118;17.058;2024-02-14T06:58:17;13.07;;;7.50;;
23270;SDS011;11804;51.118;17.058;2024-02-14T07:00:45;15.23;;;7.43;;
23270;SDS011;11804;51.118;17.058;2024-02-14T07:03:12;17.10;;;7.70;;
23270;SDS011;11804;51.118;17.058;2024-02-14T07:05:42;15.80;;;7.07;;
23270;SDS011;11804;51.118;17.058;2024-02-14T07:08:10;15.17;;;6.93;;
23270;SDS011;11804;51.118;17.058;2024-02-14T07:10:38;20.00;;;8.00;;
23270;SDS011;11804;51.118;17.058;2024-02-14T07:13:05;17.83;;;7.90;;
23270;SDS011;11804;51.118;17.058;2024-02-14T07:15:33;15.13;;;7.77;;
23270;SDS011;11804;51.118;17.058;2024-02-14T07:18:00;14.67;;;7.47;;
23270;SDS011;11804;51.118;17.058;2024-02-14T07:20:29;15.50;;;7.17;;
23270;SDS011;11804;51.118;17.058;2024-02-14T07:22:57;14.93;;;7.37;;
23270;SDS011;11804;51.118;17.058;2024-02-14T07:25:24;20.00;;;7.07;;
23270;SDS011;11804;51.118;17.058;2024-02-14T07:27:52;20.90;;;8.87;;
23270;SDS011;11804;51.118;17.058;2024-02-14T07:30:20;20.37;;;9.30;;
23270;SDS011;11804;51.118;17.058;2024-02-14T07:32:48;13.53;;;6.87;;
23270;SDS011;11804;51.118;17.058;2024-02-14T07:35:16;13.37;;;7.60;;
23270;SDS011;11804;51.118;17.058;2024-02-14T07:37:44;26.57;;;10.13;;
23270;SDS011;11804;51.118;17.058;2024-02-14T07:40:14;22.40;;;9.07;;
23270;SDS011;11804;51.118;17.058;2024-02-14T07:42:42;16.80;;;7.40;;
23270;SDS011;11804;51.118;17.058;2024-02-14T07:45:10;18.43;;;7.33;;
23270;SDS011;11804;51.118;17.058;2024-02-14T07:47:38;28.37;;;8.50;;
23270;SDS011;11804;51.118;17.058;2024-02-14T07:50:06;20.17;;;8.23;;
23270;SDS011;11804;51.118;17.058;2024-02-14T07:52:34;18.70;;;7.53;;
23270;SDS011;11804;51.118;17.058;2024-02-14T07:55:02;18.43;;;7.67;;
23270;SDS011;11804;51.118;17.058;2024-02-14T07:57:30;18.53;;;8.80;;
23270;SDS011;11804;51.118;17.058;2024-02-14T07:59:58;19.53;;;8.53;;
23270;SDS011;11804;51.118;17.058;2024-02-14T08:02:26;14.83;;;7.33;;
23270;SDS011;11804;51.118;17.058;2024-02-14T08:04:55;18.77;;;8.27;;
23270;SDS011;11804;51.118;17.058;2024-02-14T08:07:23;20.60;;;7.97;;
23270;SDS011;11804;51.118;17.058;2024-02-14T08:09:50;19.33;;;8.03;;
23270;SDS011;11804;51.118;17.058;2024-02-14T08:12:19;21.17;;;8.13;;
23270;SDS011;11804;51.118;17.058;2024-02-14T08:14:47;18.40;;;8.73;;
23270;SDS011;11804;51.118;17.058;2024-02-14T08:17:15;16.37;;;7.53;;
23270;SDS011;11804;51.118;17.058;2024-02-14T08:19:43;18.17;;;7.27;;
23270;SDS011;11804;51.118;17.058;2024-02-14T08:22:10;14.30;;;6.30;;
23270;SDS011;11804;51.118;17.058;2024-02-14T08:24:38;25.40;;;6.83;;
23270;SDS011;11804;51.118;17.058;2024-02-14T08:27:06;13.17;;;6.47;;
23270;SDS011;11804;51.118;17.058;2024-02-14T08:29:33;11.90;;;5.77;;
23270;SDS011;11804;51.118;17.058;2024-02-14T08:32:01;13.80;;;5.83;;
23270;SDS011;11804;51.118;17.058;2024-02-14T08:34:31;10.73;;;5.00;;
23270;SDS011;11804;51.118;17.058;2024-02-14T08:36:58;14.87;;;5.87;;
23270;SDS011;11804;51.118;17.058;2024-02-14T08:39:26;8.43;;;5.17;;
23270;SDS011;11804;51.118;17.058;2024-02-14T08:41:53;13.83;;;6.30;;
23270;SDS011;11804;51.118;17.058;2024-02-14T08:44:23;10.97;;;5.27;;
23270;SDS011;11804;51.118;17.058;2024-02-14T08:46:51;10.70;;;4.90;;
23270;SDS011;11804;51.118;17.058;2024-02-14T08:49:19;12.60;;;5.87;;
23270;SDS011;11804;51.118;17.058;2024-02-14T08:51:46;14.60;;;6.23;;
23270;SDS011;11804;51.118;17.058;2024-02-14T08:54:14;15.83;;;7.20;;
23270;SDS011;11804;51.118;17.058;2024-02-14T08:56:42;11.17;;;5.67;;
23270;SDS011;11804;51.118;17.058;2024-02-14T08:59:09;11.13;;;5.27;;
23270;SDS011;11804;51.118;17.058;2024-02-14T09:01:38;12.23;;;4.70;;
23270;SDS011;11804;51.118;17.058;2024-02-14T09:04:06;8.00;;;4.43;;
23270;SDS011;11804;51.118;17.058;2024-02-14T09:06:36;10.93;;;5.47;;
23270;SDS011;11804;51.118;17.058;2024-02-14T09:09:05;10.17;;;4.93;;
23270;SDS011;11804;51.118;17.058;2024-02-14T09:11:33;12.00;;;4.80;;
23270;SDS011;11804;51.118;17.058;2024-02-14T09:14:00;8.33;;;4.60;;
23270;SDS011;11804;51.118;17.058;2024-02-14T09:16:31;9.63;;;4.80;;
23270;SDS011;11804;51.118;17.058;2024-02-14T09:19:03;8.57;;;5.23;;
23270;SDS011;11804;51.118;17.058;2024-02-14T09:21:35;7.27;;;4.03;;
23270;SDS011;11804;51.118;17.058;2024-02-14T09:24:03;7.90;;;4.53;;
23270;SDS011;11804;51.118;17.058;2024-02-14T09:26:34;7.67;;;4.60;;
23270;SDS011;11804;51.118;17.058;2024-02-14T09:29:01;8.83;;;4.23;;
23270;SDS011;11804;51.118;17.058;2024-02-14T09:31:29;7.47;;;4.57;;
23270;SDS011;11804;51.118;17.058;2024-02-14T09:33:57;8.37;;;4.33;;
23270;SDS011;11804;51.118;17.058;2024-02-14T09:36:24;7.17;;;4.05;;
23270;SDS011;11804;51.118;17.058;2024-02-14T09:38:52;7.92;;;4.20;;
23270;SDS011;11804;51.118;17.058;2024-02-14T09:41:25;9.47;;;4.90;;
23270;SDS011;11804;51.118;17.058;2024-02-14T09:43:56;10.03;;;4.70;;
23270;SDS011;11804;51.118;17.058;2024-02-14T09:46:24;11.10;;;4.87;;
23270;SDS011;11804;51.118;17.058;2024-02-14T09:48:53;11.43;;;4.87;;
23270;SDS011;11804;51.118;17.058;2024-02-14T09:51:23;8.53;;;4.30;;
23270;SDS011;11804;51.118;17.058;2024-02-14T09:53:51;9.73;;;5.17;;
23270;SDS011;11804;51.118;17.058;2024-02-14T09:56:21;7.67;;;3.90;;
23270;SDS011;11804;51.118;17.058;2024-02-14T09:58:49;7.47;;;3.87;;
23270;SDS011;11804;51.118;17.058;2024-02-14T10:01:18;8.57;;;4.43;;
23270;SDS011;11804;51.118;17.058;2024-02-14T10:03:48;8.27;;;4.00;;
23270;SDS011;11804;51.118;17.058;2024-02-14T10:06:15;11.57;;;4.20;;
23270;SDS011;11804;51.118;17.058;2024-02-14T10:08:47;7.50;;;4.07;;
23270;SDS011;11804;51.118;17.058;2024-02-14T10:11:21;8.87;;;4.13;;
23270;SDS011;11804;51.118;17.058;2024-02-14T10:13:49;8.93;;;4.10;;
23270;SDS011;11804;51.118;17.058;2024-02-14T10:16:18;9.07;;;4.20;;
23270;SDS011;11804;51.118;17.058;2024-02-14T10:18:46;7.73;;;4.30;;
23270;SDS011;11804;51.118;17.058;2024-02-14T10:21:15;8.57;;;4.70;;
23270;SDS011;11804;51.118;17.058;2024-02-14T10:23:45;9.10;;;3.83;;
23270;SDS011;11804;51.118;17.058;2024-02-14T10:26:13;8.30;;;3.77;;
23270;SDS011;11804;51.118;17.058;2024-02-14T10:28:42;5.63;;;3.30;;
23270;SDS011;11804;51.118;17.058;2024-02-14T10:31:10;6.87;;;3.57;;
23270;SDS011;11804;51.118;17.058;2024-02-14T10:33:38;9.13;;;3.90;;
23270;SDS011;11804;51.118;17.058;2024-02-14T10:36:08;8.33;;;3.80;;
23270;SDS011;11804;51.118;17.058;2024-02-14T10:38:35;8.40;;;3.83;;
23270;SDS011;11804;51.118;17.058;2024-02-14T10:41:04;4.97;;;3.00;;
23270;SDS011;11804;51.118;17.058;2024-02-14T10:43:33;6.53;;;2.87;;
23270;SDS011;11804;51.118;17.058;2024-02-14T10:46:04;7.37;;;3.40;;
23270;SDS011;11804;51.118;17.058;2024-02-14T10:48:32;10.27;;;3.73;;
23270;SDS011;11804;51.118;17.058;2024-02-14T10:51:04;6.70;;;3.20;;
23270;SDS011;11804;51.118;17.058;2024-02-14T10:53:36;5.77;;;3.17;;
23270;SDS011;11804;51.118;17.058;2024-02-14T10:56:07;6.13;;;3.57;;
23270;SDS011;11804;51.118;17.058;2024-02-14T10:58:36;6.20;;;3.23;;
23270;SDS011;11804;51.118;17.058;2024-02-14T11:01:04;6.10;;;2.80;;
23270;SDS011;11804;51.118;17.058;2024-02-14T11:03:34;6.30;;;3.37;;
23270;SDS011;11804;51.118;17.058;2024-02-14T11:06:02;5.87;;;2.80;;
23270;SDS011;11804;51.118;17.058;2024-02-14T11:08:30;7.27;;;3.00;;
23270;SDS011;11804;51.118;17.058;2024-02-14T11:10:59;6.67;;;2.80;;
23270;SDS011;11804;51.118;17.058;2024-02-14T11:13:30;5.90;;;2.63;;
23270;SDS011;11804;51.118;17.058;2024-02-14T11:16:02;6.37;;;3.33;;
23270;SDS011;11804;51.118;17.058;2024-02-14T11:18:33;5.53;;;3.00;;
23270;SDS011;11804;51.118;17.058;2024-02-14T11:21:04;6.20;;;2.53;;
23270;SDS011;11804;51.118;17.058;2024-02-14T11:23:34;6.40;;;2.50;;
23270;SDS011;11804;51.118;17.058;2024-02-14T11:26:02;4.70;;;2.30;;
23270;SDS011;11804;51.118;17.058;2024-02-14T11:28:36;6.60;;;2.67;;
23270;SDS011;11804;51.118;17.058;2024-02-14T11:31:06;4.33;;;2.40;;
23270;SDS011;11804;51.118;17.058;2024-02-14T11:33:36;6.97;;;2.97;;
23270;SDS011;11804;51.118;17.058;2024-02-14T11:36:09;4.87;;;2.03;;
23270;SDS011;11804;51.118;17.058;2024-02-14T11:38:39;3.63;;;2.10;;
23270;SDS011;11804;51.118;17.058;2024-02-14T11:41:10;9.67;;;2.57;;
23270;SDS011;11804;51.118;17.058;2024-02-14T11:43:50;7.23;;;2.27;;
23270;SDS011;11804;51.118;17.058;2024-02-14T11:46:10;4.53;;;2.27;;
23270;SDS011;11804;51.118;17.058;2024-02-14T11:48:39;5.67;;;2.30;;
23270;SDS011;11804;51.118;17.058;2024-02-14T11:51:08;4.60;;;1.80;;
23270;SDS011;11804;51.118;17.058;2024-02-14T11:53:36;4.90;;;2.40;;
23270;SDS011;11804;51.118;17.058;2024-02-14T11:56:06;7.37;;;2.63;;
23270;SDS011;11804;51.118;17.058;2024-02-14T11:58:34;5.13;;;2.30;;
23270;SDS011;11804;51.118;17.058;2024-02-14T12:01:03;6.77;;;2.57;;
23270;SDS011;11804;51.118;17.058;2024-02-14T12:03:31;6.83;;;2.33;;
23270;SDS011;11804;51.118;17.058;2024-02-14T12:06:01;6.27;;;2.57;;
23270;SDS011;11804;51.118;17.058;2024-02-14T12:08:29;4.37;;;2.70;;
23270;SDS011;11804;51.118;17.058;2024-02-14T12:10:57;4.47;;;2.27;;
23270;SDS011;11804;51.118;17.058;2024-02-14T12:13:25;3.90;;;1.73;;
23270;SDS011;11804;51.118;17.058;2024-02-14T12:15:54;2.83;;;1.80;;
23270;SDS011;11804;51.118;17.058;2024-02-14T12:18:22;3.00;;;1.50;;
23270;SDS011;11804;51.118;17.058;2024-02-14T12:20:50;2.30;;;1.50;;
23270;SDS011;11804;51.118;17.058;2024-02-14T12:23:18;2.43;;;1.30;;
23270;SDS011;11804;51.118;17.058;2024-02-14T12:25:47;2.53;;;1.40;;
23270;SDS011;11804;51.118;17.058;2024-02-14T12:28:15;5.13;;;2.00;;
23270;SDS011;11804;51.118;17.058;2024-02-14T12:30:45;6.90;;;2.30;;
23270;SDS011;11804;51.118;17.058;2024-02-14T12:33:15;3.63;;;1.60;;
23270;SDS011;11804;51.118;17.058;2024-02-14T12:35:44;5.70;;;2.20;;
23270;SDS011;11804;51.118;17.058;2024-02-14T12:38:13;3.07;;;1.90;;
23270;SDS011;11804;51.118;17.058;2024-02-14T12:40:42;3.50;;;1.50;;
23270;SDS011;11804;51.118;17.058;2024-02-14T12:43:11;4.97;;;1.80;;
23270;SDS011;11804;51.118;17.058;2024-02-14T12:45:40;3.33;;;2.07;;
23270;SDS011;11804;51.118;17.058;2024-02-14T12:48:10;5.13;;;2.10;;
23270;SDS011;11804;51.118;17.058;2024-02-14T12:50:39;6.30;;;3.10;;
23270;SDS011;11804;51.118;17.058;2024-02-14T12:53:08;7.70;;;2.57;;
23270;SDS011;11804;51.118;17.058;2024-02-14T12:55:36;4.37;;;2.10;;
23270;SDS011;11804;51.118;17.058;2024-02-14T12:58:04;4.50;;;1.90;;
23270;SDS011;11804;51.118;17.058;2024-02-14T13:00:31;5.33;;;2.10;;
23270;SDS011;11804;51.118;17.058;2024-02-14T13:02:59;4.40;;;2.33;;
23270;SDS011;11804;51.118;17.058;2024-02-14T13:05:27;3.80;;;1.80;;
23270;SDS011;11804;51.118;17.058;2024-02-14T13:07:55;3.97;;;2.30;;
23270;SDS011;11804;51.118;17.058;2024-02-14T13:10:22;4.33;;;2.03;;
23270;SDS011;11804;51.118;17.058;2024-02-14T13:12:50;2.57;;;1.60;;
23270;SDS011;11804;51.118;17.058;2024-02-14T13:15:18;2.93;;;1.70;;
23270;SDS011;11804;51.118;17.058;2024-02-14T13:17:46;2.47;;;1.67;;
23270;SDS011;11804;51.118;17.058;2024-02-14T13:20:14;6.83;;;3.10;;
23270;SDS011;11804;51.118;17.058;2024-02-14T13:22:43;2.20;;;1.60;;
23270;SDS011;11804;51.118;17.058;2024-02-14T13:25:12;3.73;;;2.13;;
23270;SDS011;11804;51.118;17.058;2024-02-14T13:27:40;3.60;;;1.50;;
23270;SDS011;11804;51.118;17.058;2024-02-14T13:30:10;3.73;;;1.97;;
23270;SDS011;11804;51.118;17.058;2024-02-14T13:32:38;3.47;;;1.33;;
23270;SDS011;11804;51.118;17.058;2024-02-14T13:35:06;4.93;;;2.00;;
23270;SDS011;11804;51.118;17.058;2024-02-14T13:37:34;4.67;;;2.50;;
23270;SDS011;11804;51.118;17.058;2024-02-14T13:40:03;7.10;;;1.80;;
23270;SDS011;11804;51.118;17.058;2024-02-14T13:42:40;3.20;;;1.63;;
23270;SDS011;11804;51.118;17.058;2024-02-14T13:45:09;2.43;;;1.30;;
23270;SDS011;11804;51.118;17.058;2024-02-14T13:47:37;4.30;;;1.83;;
23270;SDS011;11804;51.118;17.058;2024-02-14T13:50:07;4.90;;;1.80;;
23270;SDS011;11804;51.118;17.058;2024-02-14T13:52:36;5.37;;;2.00;;
23270;SDS011;11804;51.118;17.058;2024-02-14T13:55:04;4.33;;;2.20;;
23270;SDS011;11804;51.118;17.058;2024-02-14T13:57:37;4.47;;;2.10;;
23270;SDS011;11804;51.118;17.058;2024-02-14T14:00:07;11.20;;;2.17;;
23270;SDS011;11804;51.118;17.058;2024-02-14T14:02:37;4.23;;;1.97;;
23270;SDS011;11804;51.118;17.058;2024-02-14T14:05:12;7.20;;;1.70;;
23270;SDS011;11804;51.118;17.058;2024-02-14T14:07:40;5.70;;;2.03;;
23270;SDS011;11804;51.118;17.058;2024-02-14T14:10:10;5.07;;;1.60;;
23270;SDS011;11804;51.118;17.058;2024-02-14T14:12:38;4.20;;;2.07;;
23270;SDS011;11804;51.118;17.058;2024-02-14T14:15:05;4.33;;;2.13;;
23270;SDS011;11804;51.118;17.058;2024-02-14T14:17:35;4.87;;;1.97;;
23270;SDS011;11804;51.118;17.058;2024-02-14T14:20:03;3.67;;;1.83;;
23270;SDS011;11804;51.118;17.058;2024-02-14T14:22:33;4.50;;;2.13;;
23270;SDS011;11804;51.118;17.058;2024-02-14T14:25:00;3.97;;;1.67;;
23270;SDS011;11804;51.118;17.058;2024-02-14T14:27:28;4.93;;;2.20;;
23270;SDS011;11804;51.118;17.058;2024-02-14T14:29:56;4.30;;;2.23;;
23270;SDS011;11804;51.118;17.058;2024-02-14T14:32:23;4.77;;;2.47;;